Time;durP1;ratioP1;P1;durP2;ratioP2;P2;SDS_P1;SDS_P2;PMS_P1;PMS_P2;Temp;Humidity;BMP_temperature;BMP_pressure;BME280_temperature;BME280_humidity;BME280_pressure;Samples;Min_cycle;Max_cycle;Signal;HPM_P1;HPM_P2
2022/02/16 00:01:52;;;;;;;32.67;30.08;;;;;;;;;;5049421;28;20033;-52
2022/02/16 00:04:18;;;;;;;32.17;29.50;;;;;;;;;;5048799;28;20413;-56
2022/02/16 00:06:44;;;;;;;31.45;28.95;;;;;;;;;;5049709;28;20040;-56
2022/02/16 00:09:10;;;;;;;33.08;30.35;;;;;;;;;;5049172;28;20032;-53
2022/02/16 00:11:36;;;;;;;31.08;28.45;;;;;;;;;;5047507;28;20037;-52
2022/02/16 00:14:02;;;;;;;31.50;29.00;;;;;;;;;;5046579;28;20501;-55
2022/02/16 00:16:28;;;;;;;30.33;27.42;;;;;;;;;;5048055;28;20025;-57
2022/02/16 00:18:54;;;;;;;29.85;27.17;;;;;;;;;;5047635;28;20025;-58
2022/02/16 00:21:20;;;;;;;30.20;27.55;;;;;;;;;;5049400;28;20032;-59
2022/02/16 00:23:46;;;;;;;34.60;31.90;;;;;;;;;;5049525;28;20033;-56
2022/02/16 00:26:12;;;;;;;33.40;30.65;;;;;;;;;;5047201;28;20675;-55
2022/02/16 00:28:38;;;;;;;34.45;31.70;;;;;;;;;;5069257;23;20044;-61
2022/02/16 00:31:05;;;;;;;35.58;32.85;;;;;;;;;;5071864;28;20182;-59
2022/02/16 00:33:31;;;;;;;32.38;29.58;;;;;;;;;;5091351;28;20041;-58
2022/02/16 00:35:57;;;;;;;30.45;27.85;;;;;;;;;;5073183;28;20119;-57
2022/02/16 00:38:23;;;;;;;29.13;26.52;;;;;;;;;;5091256;28;20095;-60
2022/02/16 00:40:49;;;;;;;30.02;27.45;;;;;;;;;;5074416;28;20527;-59
2022/02/16 00:43:15;;;;;;;29.77;27.30;;;;;;;;;;5074624;28;20035;-61
2022/02/16 00:45:41;;;;;;;29.80;27.10;;;;;;;;;;5073897;28;20024;-57
2022/02/16 00:48:07;;;;;;;30.60;27.73;;;;;;;;;;5092736;28;20028;-61
2022/02/16 00:50:33;;;;;;;31.85;28.98;;;;;;;;;;5092571;28;20031;-61
2022/02/16 00:52:59;;;;;;;31.42;28.70;;;;;;;;;;5092594;28;20023;-61
2022/02/16 00:55:25;;;;;;;31.52;28.73;;;;;;;;;;5091741;28;20098;-61
2022/02/16 00:57:51;;;;;;;30.67;27.88;;;;;;;;;;5092393;28;20024;-59
2022/02/16 01:00:17;;;;;;;30.42;27.50;;;;;;;;;;5093068;28;20050;-58
2022/02/16 01:02:43;;;;;;;31.45;28.50;;;;;;;;;;5092666;28;20028;-58
2022/02/16 01:05:09;;;;;;;31.33;28.33;;;;;;;;;;5091707;28;20081;-58
2022/02/16 01:07:35;;;;;;;31.88;28.98;;;;;;;;;;5074235;28;20073;-59
2022/02/16 01:10:01;;;;;;;32.42;29.58;;;;;;;;;;5092150;28;20039;-56
2022/02/16 01:12:27;;;;;;;31.50;28.80;;;;;;;;;;5073262;28;20387;-61
2022/02/16 01:14:54;;;;;;;31.95;29.05;;;;;;;;;;5073610;28;20023;-59
2022/02/16 01:17:20;;;;;;;31.77;28.98;;;;;;;;;;5092232;28;20020;-56
2022/02/16 01:19:46;;;;;;;31.90;29.08;;;;;;;;;;5092220;28;20372;-59
2022/02/16 01:22:12;;;;;;;32.67;29.58;;;;;;;;;;5092017;28;20028;-58
2022/02/16 01:24:38;;;;;;;30.65;27.75;;;;;;;;;;5073371;28;20139;-59
2022/02/16 01:27:04;;;;;;;30.17;27.27;;;;;;;;;;5092403;28;20050;-61
2022/02/16 01:29:30;;;;;;;31.63;28.75;;;;;;;;;;5092217;28;20063;-59
2022/02/16 01:31:56;;;;;;;34.45;31.25;;;;;;;;;;5092033;28;20027;-60
2022/02/16 01:34:22;;;;;;;32.83;29.73;;;;;;;;;;5091422;28;20032;-58
2022/02/16 01:36:48;;;;;;;33.58;30.55;;;;;;;;;;5092244;28;20024;-55
2022/02/16 01:39:14;;;;;;;34.10;31.10;;;;;;;;;;5091917;28;20024;-58
2022/02/16 01:41:41;;;;;;;32.25;29.25;;;;;;;;;;5092148;28;20024;-58
2022/02/16 01:44:07;;;;;;;33.10;30.10;;;;;;;;;;5091484;28;20376;-54
2022/02/16 01:46:47;;;;;;;32.55;29.63;;;;;;;;;;5092299;28;20546;-58
2022/02/16 01:49:13;;;;;;;31.65;28.58;;;;;;;;;;5092040;28;20044;-62
2022/02/16 01:51:39;;;;;;;32.30;29.27;;;;;;;;;;5073862;28;20035;-59
2022/02/16 01:54:05;;;;;;;33.45;30.45;;;;;;;;;;5091250;28;20077;-59
2022/02/16 01:56:31;;;;;;;33.85;30.95;;;;;;;;;;5091924;28;20473;-60
2022/02/16 01:58:57;;;;;;;33.00;30.02;;;;;;;;;;5091984;28;20031;-58
2022/02/16 02:01:24;;;;;;;34.20;31.17;;;;;;;;;;5073743;28;20400;-60
2022/02/16 02:03:50;;;;;;;33.10;29.90;;;;;;;;;;5091261;28;20024;-59
2022/02/16 02:06:16;;;;;;;31.67;28.75;;;;;;;;;;5091490;28;20528;-60
2022/02/16 02:08:42;;;;;;;32.78;29.85;;;;;;;;;;5091908;28;20449;-57
2022/02/16 02:11:08;;;;;;;31.67;28.67;;;;;;;;;;5091840;28;20028;-56
2022/02/16 02:13:34;;;;;;;31.52;28.65;;;;;;;;;;5091815;28;20459;-57
2022/02/16 02:16:00;;;;;;;29.85;27.10;;;;;;;;;;5091213;28;20108;-56
2022/02/16 02:18:26;;;;;;;31.50;28.52;;;;;;;;;;5073295;28;20446;-56
2022/02/16 02:20:52;;;;;;;30.55;27.65;;;;;;;;;;5091590;28;20111;-55
2022/02/16 02:23:18;;;;;;;30.13;27.33;;;;;;;;;;5093816;28;20452;-59
2022/02/16 02:25:51;;;;;;;28.80;25.67;;;;;;;;;;5094654;28;20043;-56
2022/02/16 02:28:19;;;;;;;29.73;26.73;;;;;;;;;;5095149;28;20046;-59
2022/02/16 02:30:46;;;;;;;28.05;25.35;;;;;;;;;;5094111;28;20031;-58
2022/02/16 02:33:13;;;;;;;28.05;25.25;;;;;;;;;;5095171;28;20073;-60
2022/02/16 02:35:39;;;;;;;29.10;26.27;;;;;;;;;;5076246;28;20024;-60
2022/02/16 02:38:05;;;;;;;27.08;24.27;;;;;;;;;;5095073;28;20024;-57
2022/02/16 02:40:31;;;;;;;25.95;23.35;;;;;;;;;;5095065;28;20067;-59
2022/02/16 02:42:57;;;;;;;27.35;24.25;;;;;;;;;;5094956;28;20064;-60
2022/02/16 02:45:23;;;;;;;26.35;23.70;;;;;;;;;;5094468;28;20022;-60
2022/02/16 02:47:49;;;;;;;26.67;23.98;;;;;;;;;;5094931;28;20024;-60
2022/02/16 02:50:15;;;;;;;25.50;22.90;;;;;;;;;;5076522;28;20020;-60
2022/02/16 02:52:41;;;;;;;25.42;22.90;;;;;;;;;;5076591;28;20119;-60
2022/02/16 02:55:09;;;;;;;25.77;23.08;;;;;;;;;;5076036;28;20025;-61
2022/02/16 02:57:35;;;;;;;26.33;23.63;;;;;;;;;;5094538;28;20020;-60
2022/02/16 03:00:01;;;;;;;26.20;23.60;;;;;;;;;;5094512;28;20130;-61
2022/02/16 03:02:27;;;;;;;26.30;23.60;;;;;;;;;;5094695;28;20127;-62
2022/02/16 03:04:53;;;;;;;30.95;28.05;;;;;;;;;;5093792;28;20024;-60
2022/02/16 03:07:19;;;;;;;29.20;26.50;;;;;;;;;;5076344;28;20391;-61
2022/02/16 03:09:45;;;;;;;29.92;27.23;;;;;;;;;;5076167;28;20024;-61
2022/02/16 03:12:11;;;;;;;30.92;28.02;;;;;;;;;;5076390;28;20559;-59
2022/02/16 03:14:37;;;;;;;28.90;26.20;;;;;;;;;;5093912;28;20019;-61
2022/02/16 03:17:03;;;;;;;30.40;27.42;;;;;;;;;;5094192;28;20471;-61
2022/02/16 03:19:29;;;;;;;30.20;27.30;;;;;;;;;;5094248;28;20024;-61
2022/02/16 03:21:55;;;;;;;30.45;27.65;;;;;;;;;;5094247;28;20024;-60
2022/02/16 03:24:22;;;;;;;31.27;28.23;;;;;;;;;;5093462;28;20165;-61
2022/02/16 03:26:48;;;;;;;31.02;28.20;;;;;;;;;;5094136;28;20132;-61
2022/02/16 03:29:14;;;;;;;31.15;28.35;;;;;;;;;;5093972;28;20032;-61
2022/02/16 03:31:40;;;;;;;32.47;29.55;;;;;;;;;;5094016;28;20032;-60
2022/02/16 03:34:06;;;;;;;31.55;28.55;;;;;;;;;;5092583;28;20020;-62
2022/02/16 03:36:32;;;;;;;33.50;30.23;;;;;;;;;;5093631;28;20031;-62
2022/02/16 03:38:58;;;;;;;32.03;29.08;;;;;;;;;;5075657;28;20016;-61
2022/02/16 03:41:24;;;;;;;30.23;27.42;;;;;;;;;;5075791;28;20024;-60
2022/02/16 03:43:50;;;;;;;31.70;28.60;;;;;;;;;;5093477;28;20024;-61
2022/02/16 03:46:16;;;;;;;31.05;28.15;;;;;;;;;;5093603;28;20058;-62
2022/02/16 03:48:42;;;;;;;31.48;28.67;;;;;;;;;;5075535;28;20445;-61
2022/02/16 03:51:08;;;;;;;29.63;26.73;;;;;;;;;;5093531;28;20024;-60
2022/02/16 03:53:34;;;;;;;30.85;27.95;;;;;;;;;;5093536;28;20106;-61
2022/02/16 03:56:01;;;;;;;31.13;28.23;;;;;;;;;;5093009;28;20494;-61
2022/02/16 03:58:27;;;;;;;29.52;26.65;;;;;;;;;;5075259;28;20107;-61
2022/02/16 04:00:53;;;;;;;31.98;28.83;;;;;;;;;;5093435;28;20067;-62
2022/02/16 04:03:19;;;;;;;31.98;29.00;;;;;;;;;;5093226;28;20024;-59
2022/02/16 04:05:45;;;;;;;32.38;29.48;;;;;;;;;;5092703;28;20086;-60
2022/02/16 04:08:11;;;;;;;33.83;30.70;;;;;;;;;;5093249;28;20430;-61
2022/02/16 04:10:37;;;;;;;31.75;28.85;;;;;;;;;;5093282;28;20605;-54
2022/02/16 04:13:03;;;;;;;31.20;28.38;;;;;;;;;;5075031;28;20020;-60
2022/02/16 04:15:30;;;;;;;32.58;29.67;;;;;;;;;;5074466;28;20373;-61
2022/02/16 04:17:56;;;;;;;34.10;30.88;;;;;;;;;;5075014;28;20031;-54
2022/02/16 04:20:23;;;;;;;31.20;28.40;;;;;;;;;;5093156;28;20384;-54
2022/02/16 04:22:53;;;;;;;32.20;29.30;;;;;;;;;;5093212;28;20361;-55
2022/02/16 04:25:19;;;;;;;31.92;29.05;;;;;;;;;;5092303;28;20442;-60
2022/02/16 04:27:45;;;;;;;32.28;29.05;;;;;;;;;;5074975;28;20361;-59
2022/02/16 04:30:11;;;;;;;30.20;27.30;;;;;;;;;;5074604;28;20077;-59
2022/02/16 04:32:38;;;;;;;29.30;26.50;;;;;;;;;;5074805;28;20046;-59
2022/02/16 04:35:04;;;;;;;28.23;25.52;;;;;;;;;;5091932;28;20016;-60
2022/02/16 04:37:31;;;;;;;30.05;27.15;;;;;;;;;;5092483;28;20027;-60
2022/02/16 04:39:57;;;;;;;31.48;28.60;;;;;;;;;;5092721;28;20040;-60
2022/02/16 04:42:23;;;;;;;29.60;26.88;;;;;;;;;;5092775;28;20081;-59
2022/02/16 04:44:49;;;;;;;30.48;27.58;;;;;;;;;;5091674;28;20024;-61
2022/02/16 04:47:15;;;;;;;30.23;27.15;;;;;;;;;;5073591;28;20035;-62
2022/02/16 04:49:41;;;;;;;30.13;27.27;;;;;;;;;;5092324;28;20107;-62
2022/02/16 04:52:08;;;;;;;30.77;27.90;;;;;;;;;;5092427;28;20154;-60
2022/02/16 04:54:35;;;;;;;29.23;26.45;;;;;;;;;;5091854;28;20021;-59
2022/02/16 04:57:00;;;;;;;31.05;28.13;;;;;;;;;;5092635;28;20498;-59
2022/02/16 04:59:26;;;;;;;31.10;28.25;;;;;;;;;;5074557;28;20020;-59
2022/02/16 05:01:52;;;;;;;31.77;28.98;;;;;;;;;;5092435;28;20030;-58
2022/02/16 05:04:18;;;;;;;30.63;27.85;;;;;;;;;;5091356;28;20560;-61
2022/02/16 05:06:45;;;;;;;31.90;29.00;;;;;;;;;;5092360;28;20051;-60
2022/02/16 05:09:11;;;;;;;31.17;28.27;;;;;;;;;;5092459;28;20455;-58
2022/02/16 05:11:37;;;;;;;32.30;29.13;;;;;;;;;;5092157;28;20035;-56
2022/02/16 05:14:03;;;;;;;30.02;27.25;;;;;;;;;;5091516;28;20103;-56
2022/02/16 05:16:29;;;;;;;30.20;27.35;;;;;;;;;;5092074;28;20024;-60
2022/02/16 05:18:56;;;;;;;29.48;26.48;;;;;;;;;;5091896;28;20052;-60
2022/02/16 05:21:22;;;;;;;29.77;27.08;;;;;;;;;;5091984;28;20032;-58
2022/02/16 05:23:48;;;;;;;28.45;25.67;;;;;;;;;;5091774;28;20123;-61
2022/02/16 05:26:15;;;;;;;28.90;26.13;;;;;;;;;;5091721;28;20032;-60
2022/02/16 05:28:40;;;;;;;29.50;26.80;;;;;;;;;;5092003;28;20032;-60
2022/02/16 05:31:07;;;;;;;30.58;27.77;;;;;;;;;;5091944;28;20024;-60
2022/02/16 05:33:33;;;;;;;29.55;26.85;;;;;;;;;;5091907;28;20472;-60
2022/02/16 05:35:59;;;;;;;29.83;27.13;;;;;;;;;;5091215;28;20031;-57
2022/02/16 05:38:25;;;;;;;28.20;25.50;;;;;;;;;;5091816;28;20031;-59
2022/02/16 05:40:51;;;;;;;28.13;25.52;;;;;;;;;;5092159;28;20667;-59
2022/02/16 05:43:17;;;;;;;28.40;25.42;;;;;;;;;;5091824;28;20032;-59
2022/02/16 05:45:44;;;;;;;26.20;23.60;;;;;;;;;;5091111;28;20146;-57
2022/02/16 05:48:10;;;;;;;26.52;23.92;;;;;;;;;;5091646;28;20113;-58
2022/02/16 05:50:36;;;;;;;26.42;23.50;;;;;;;;;;5073288;28;20074;-59
2022/02/16 05:53:03;;;;;;;25.48;22.92;;;;;;;;;;5073279;28;20034;-59
2022/02/16 05:55:29;;;;;;;25.20;22.70;;;;;;;;;;5090993;28;20030;-59
2022/02/16 05:57:55;;;;;;;24.88;22.38;;;;;;;;;;5093532;28;20443;-60
2022/02/16 06:00:21;;;;;;;24.40;22.00;;;;;;;;;;5095142;28;20111;-59
2022/02/16 06:02:47;;;;;;;24.58;22.17;;;;;;;;;;5095645;28;20077;-59
2022/02/16 06:05:13;;;;;;;24.90;22.25;;;;;;;;;;5094546;28;20024;-61
2022/02/16 06:07:39;;;;;;;24.70;22.23;;;;;;;;;;5095410;28;20031;-61
2022/02/16 06:10:06;;;;;;;23.05;20.80;;;;;;;;;;5095371;28;20430;-58
2022/02/16 06:12:32;;;;;;;23.60;21.20;;;;;;;;;;5095607;28;20043;-56
2022/02/16 06:14:58;;;;;;;23.48;21.17;;;;;;;;;;5094679;28;20472;-61
2022/02/16 06:17:24;;;;;;;23.75;21.40;;;;;;;;;;5094973;28;20103;-62
2022/02/16 06:19:50;;;;;;;23.15;20.95;;;;;;;;;;5094775;28;20024;-57
2022/02/16 06:22:16;;;;;;;26.70;23.23;;;;;;;;;;5095204;28;20142;-58
2022/02/16 06:24:42;;;;;;;23.60;21.25;;;;;;;;;;5076215;28;20020;-62
2022/02/16 06:27:08;;;;;;;23.95;21.45;;;;;;;;;;5094904;28;20020;-59
2022/02/16 06:29:34;;;;;;;24.08;21.77;;;;;;;;;;5107685;22;20412;-56
2022/02/16 06:32:00;;;;;;;24.92;22.40;;;;;;;;;;5094856;28;20024;-57
2022/02/16 06:34:26;;;;;;;24.70;22.30;;;;;;;;;;5094432;28;20043;-55
2022/02/16 06:36:52;;;;;;;24.17;21.92;;;;;;;;;;5095065;28;20070;-55
2022/02/16 06:39:18;;;;;;;24.40;22.17;;;;;;;;;;5094836;28;20056;-58
2022/02/16 06:41:44;;;;;;;28.15;25.75;;;;;;;;;;5076724;28;20431;-58
2022/02/16 06:44:10;;;;;;;32.53;29.92;;;;;;;;;;5094135;28;20024;-60
2022/02/16 06:46:36;;;;;;;33.08;30.45;;;;;;;;;;5095066;28;20062;-58
2022/02/16 06:49:02;;;;;;;30.83;28.30;;;;;;;;;;5094466;28;20104;-50
2022/02/16 06:51:30;;;;;;;31.88;29.27;;;;;;;;;;5094825;28;20028;-54
2022/02/16 06:53:56;;;;;;;32.37;29.77;;;;;;;;;;5094234;28;20635;-57
2022/02/16 06:56:23;;;;;;;30.88;28.27;;;;;;;;;;5095934;28;20323;-54
2022/02/16 06:58:49;;;;;;;28.17;25.80;;;;;;;;;;5094993;28;20107;-51
2022/02/16 07:01:15;;;;;;;29.67;27.08;;;;;;;;;;5094813;28;20043;-55
2022/02/16 07:03:41;;;;;;;29.42;26.92;;;;;;;;;;5094631;28;20028;-54
2022/02/16 07:06:07;;;;;;;28.00;25.60;;;;;;;;;;5094084;28;20035;-58
2022/02/16 07:08:34;;;;;;;28.02;25.70;;;;;;;;;;5075704;28;20024;-54
2022/02/16 07:11:00;;;;;;;27.40;25.00;;;;;;;;;;5075657;28;20109;-57
2022/02/16 07:13:26;;;;;;;27.23;24.83;;;;;;;;;;5094660;28;20507;-56
2022/02/16 07:15:52;;;;;;;27.05;24.63;;;;;;;;;;5076310;28;20020;-57
2022/02/16 07:18:18;;;;;;;27.80;25.15;;;;;;;;;;5076330;28;20028;-53
2022/02/16 07:20:44;;;;;;;26.45;24.15;;;;;;;;;;5094238;28;20432;-55
2022/02/16 07:23:11;;;;;;;26.40;24.05;;;;;;;;;;5094728;28;20038;-59
2022/02/16 07:25:37;;;;;;;26.83;24.35;;;;;;;;;;5093409;28;20526;-55
2022/02/16 07:28:04;;;;;;;26.58;24.27;;;;;;;;;;5076035;28;20108;-57
2022/02/16 07:30:31;;;;;;;26.23;23.87;;;;;;;;;;5094314;28;20024;-57
2022/02/16 07:32:57;;;;;;;25.02;22.90;;;;;;;;;;5094207;28;20043;-56
2022/02/16 07:35:23;;;;;;;24.88;22.77;;;;;;;;;;5093623;28;20413;-56
2022/02/16 07:37:51;;;;;;;25.70;23.50;;;;;;;;;;5084275;28;20024;-63
2022/02/16 07:40:17;;;;;;;26.13;23.55;;;;;;;;;;5094870;28;20024;-60
2022/02/16 07:42:43;;;;;;;25.08;22.98;;;;;;;;;;5076403;28;20115;-61
2022/02/16 07:45:10;;;;;;;25.45;23.25;;;;;;;;;;5093259;28;20476;-58
2022/02/16 07:47:36;;;;;;;25.25;23.13;;;;;;;;;;5075396;28;20039;-60
2022/02/16 07:50:03;;;;;;;25.08;22.90;;;;;;;;;;5075568;28;20020;-60
2022/02/16 07:52:31;;;;;;;25.35;23.15;;;;;;;;;;5075176;28;20070;-59
2022/02/16 07:54:57;;;;;;;25.15;22.83;;;;;;;;;;5092810;28;20023;-59
2022/02/16 07:57:23;;;;;;;25.13;23.02;;;;;;;;;;5093740;28;20437;-58
2022/02/16 07:59:49;;;;;;;26.83;24.63;;;;;;;;;;5093416;28;20020;-60
2022/02/16 08:02:15;;;;;;;26.05;23.90;;;;;;;;;;5075494;28;20057;-62
2022/02/16 08:04:41;;;;;;;27.50;25.30;;;;;;;;;;5092705;28;20028;-57
2022/02/16 08:07:07;;;;;;;27.48;25.25;;;;;;;;;;5092855;28;20024;-58
2022/02/16 08:09:34;;;;;;;27.55;24.95;;;;;;;;;;5093612;28;20024;-64
2022/02/16 08:12:00;;;;;;;25.45;23.35;;;;;;;;;;5093294;28;20024;-59
2022/02/16 08:14:26;;;;;;;24.85;22.75;;;;;;;;;;5092949;28;20024;-63
2022/02/16 08:16:55;;;;;;;24.45;22.35;;;;;;;;;;5093513;28;20020;-62
2022/02/16 08:19:23;;;;;;;24.05;21.95;;;;;;;;;;5093222;28;20028;-59
2022/02/16 08:21:49;;;;;;;23.10;21.05;;;;;;;;;;5091772;28;20028;-56
2022/02/16 08:24:16;;;;;;;25.20;23.00;;;;;;;;;;5074216;28;20028;-59
2022/02/16 08:26:42;;;;;;;23.08;21.08;;;;;;;;;;5075300;28;20115;-60
2022/02/16 08:29:08;;;;;;;24.30;21.98;;;;;;;;;;5091770;28;20043;-61
2022/02/16 08:31:34;;;;;;;23.98;21.77;;;;;;;;;;5073776;28;20395;-58
2022/02/16 08:34:00;;;;;;;21.00;19.00;;;;;;;;;;5092341;28;20020;-58
2022/02/16 08:36:26;;;;;;;20.23;18.33;;;;;;;;;;5092350;28;20016;-58
2022/02/16 08:38:52;;;;;;;20.40;18.25;;;;;;;;;;5084762;28;20024;-59
2022/02/16 08:41:18;;;;;;;20.40;18.40;;;;;;;;;;5055953;28;20033;-59
2022/02/16 08:43:44;;;;;;;20.02;18.10;;;;;;;;;;5055277;28;20021;-51
2022/02/16 08:46:10;;;;;;;20.40;18.40;;;;;;;;;;5072206;28;20392;-59
2022/02/16 08:48:36;;;;;;;20.02;17.92;;;;;;;;;;5054420;28;20020;-62
2022/02/16 08:51:02;;;;;;;19.63;17.73;;;;;;;;;;5072361;28;20031;-61
2022/02/16 08:53:29;;;;;;;22.02;20.02;;;;;;;;;;5072494;28;20028;-63
2022/02/16 08:55:55;;;;;;;24.67;22.58;;;;;;;;;;5071869;28;20025;-61
2022/02/16 08:58:21;;;;;;;25.10;23.00;;;;;;;;;;5073326;28;20086;-61
2022/02/16 09:00:48;;;;;;;25.40;23.20;;;;;;;;;;5054592;28;20123;-60
2022/02/16 09:03:14;;;;;;;24.63;22.40;;;;;;;;;;5054393;28;20082;-62
2022/02/16 09:05:40;;;;;;;24.55;22.20;;;;;;;;;;5071524;28;20031;-61
2022/02/16 09:08:06;;;;;;;26.67;24.48;;;;;;;;;;5072546;28;20442;-63
2022/02/16 09:10:32;;;;;;;24.17;22.08;;;;;;;;;;5072228;28;20035;-62
2022/02/16 09:12:58;;;;;;;24.90;22.70;;;;;;;;;;5063231;28;20020;-59
2022/02/16 09:15:26;;;;;;;25.05;22.95;;;;;;;;;;5073283;28;20028;-55
2022/02/16 09:17:56;;;;;;;25.73;23.53;;;;;;;;;;5092336;28;20016;-60
2022/02/16 09:20:22;;;;;;;25.50;23.30;;;;;;;;;;5092384;28;20093;-60
2022/02/16 09:22:48;;;;;;;25.88;23.55;;;;;;;;;;5074084;28;20506;-59
2022/02/16 09:25:14;;;;;;;29.50;27.15;;;;;;;;;;5071400;28;20392;-55
2022/02/16 09:27:40;;;;;;;36.63;33.30;;;;;;;;;;5082138;28;20457;-52
2022/02/16 09:30:07;;;;;;;26.80;24.50;;;;;;;;;;5082408;28;20036;-55
2022/02/16 09:32:33;;;;;;;25.10;22.90;;;;;;;;;;5082772;28;20016;-60
2022/02/16 09:34:59;;;;;;;25.55;23.35;;;;;;;;;;5087275;28;20047;-59
2022/02/16 09:37:26;;;;;;;25.77;23.58;;;;;;;;;;5085850;28;20396;-57
2022/02/16 09:39:52;;;;;;;25.83;23.42;;;;;;;;;;5083968;28;20055;-58
2022/02/16 09:42:18;;;;;;;26.33;23.92;;;;;;;;;;5065453;28;20029;-55
2022/02/16 09:44:51;;;;;;;26.80;24.40;;;;;;;;;;5090743;28;20020;-62
2022/02/16 09:47:17;;;;;;;26.23;23.98;;;;;;;;;;5075210;28;20082;-61
2022/02/16 09:49:43;;;;;;;26.00;23.70;;;;;;;;;;5075705;28;20111;-62
2022/02/16 09:52:09;;;;;;;26.45;24.13;;;;;;;;;;5078213;28;20016;-62
2022/02/16 09:54:36;;;;;;;27.05;24.65;;;;;;;;;;5076837;28;20062;-64
2022/02/16 09:57:03;;;;;;;28.17;25.58;;;;;;;;;;5095101;28;20099;-62
2022/02/16 09:59:29;;;;;;;27.45;25.02;;;;;;;;;;5095015;28;20177;-62
2022/02/16 10:01:57;;;;;;;26.40;24.00;;;;;;;;;;5095811;28;20368;-62
2022/02/16 10:04:28;;;;;;;26.50;24.20;;;;;;;;;;5095162;28;20078;-62
2022/02/16 10:06:54;;;;;;;27.65;25.25;;;;;;;;;;5077821;28;20052;-63
2022/02/16 10:09:30;;;;;;;26.90;24.60;;;;;;;;;;5078195;28;20035;-64
2022/02/16 10:12:00;;;;;;;26.75;24.35;;;;;;;;;;5095390;28;20024;-64
2022/02/16 10:14:27;;;;;;;27.20;24.80;;;;;;;;;;5095072;28;20028;-62
2022/02/16 10:16:53;;;;;;;26.17;23.88;;;;;;;;;;5095595;28;20100;-63
2022/02/16 10:19:19;;;;;;;27.10;24.60;;;;;;;;;;5095828;28;20488;-65
2022/02/16 10:22:05;;;;;;;27.80;25.40;;;;;;;;;;5085130;28;20063;-65
2022/02/16 10:24:31;;;;;;;27.02;24.73;;;;;;;;;;5086598;28;20074;-65
2022/02/16 10:26:58;;;;;;;29.10;26.50;;;;;;;;;;5071952;28;20024;-64
2022/02/16 10:29:25;;;;;;;27.42;25.05;;;;;;;;;;5077154;28;20035;-65
2022/02/16 10:31:51;;;;;;;27.80;25.60;;;;;;;;;;5076214;28;20032;-61
2022/02/16 10:34:18;;;;;;;27.55;25.25;;;;;;;;;;5075675;28;20625;-63
2022/02/16 10:36:46;;;;;;;27.05;24.73;;;;;;;;;;5058071;28;20170;-62
2022/02/16 10:39:15;;;;;;;27.40;25.08;;;;;;;;;;5059634;28;20028;-58
2022/02/16 10:41:48;;;;;;;26.10;23.90;;;;;;;;;;5056510;28;20545;-61
2022/02/16 10:44:24;;;;;;;26.30;24.10;;;;;;;;;;5056115;28;20024;-57
2022/02/16 10:47:00;;;;;;;26.63;24.38;;;;;;;;;;5074496;28;20142;-64
2022/02/16 10:49:26;;;;;;;27.73;25.33;;;;;;;;;;5056681;28;20028;-61
2022/02/16 10:52:03;;;;;;;27.15;24.85;;;;;;;;;;5057175;28;20025;-61
2022/02/16 10:54:29;;;;;;;27.23;24.92;;;;;;;;;;5073560;28;20488;-60
2022/02/16 10:56:55;;;;;;;26.60;24.30;;;;;;;;;;5074656;28;20499;-61
2022/02/16 10:59:21;;;;;;;27.08;24.77;;;;;;;;;;5074734;28;20116;-63
2022/02/16 11:01:47;;;;;;;25.83;23.63;;;;;;;;;;5074872;28;20025;-59
2022/02/16 11:04:15;;;;;;;26.15;23.95;;;;;;;;;;5056273;28;20043;-61
2022/02/16 11:06:48;;;;;;;26.10;23.90;;;;;;;;;;5074751;28;20074;-61
2022/02/16 11:09:17;;;;;;;26.48;24.25;;;;;;;;;;5057116;28;20512;-59
2022/02/16 11:11:43;;;;;;;27.20;25.00;;;;;;;;;;5074570;28;20032;-60
2022/02/16 11:14:10;;;;;;;27.67;25.45;;;;;;;;;;5074106;28;20024;-61
2022/02/16 11:16:36;;;;;;;25.88;23.77;;;;;;;;;;5074575;28;20056;-61
2022/02/16 11:19:18;;;;;;;26.58;24.38;;;;;;;;;;5074556;28;20016;-62
2022/02/16 11:22:14;;;;;;;26.58;24.38;;;;;;;;;;5056872;28;20124;-61
2022/02/16 11:24:49;;;;;;;26.67;24.35;;;;;;;;;;5046044;28;20041;-58
2022/02/16 11:27:21;;;;;;;27.48;25.17;;;;;;;;;;5056467;28;20024;-61
2022/02/16 11:29:48;;;;;;;27.30;25.10;;;;;;;;;;5056116;28;20135;-62
2022/02/16 11:32:15;;;;;;;27.30;25.00;;;;;;;;;;5055885;28;20074;-61
2022/02/16 11:34:41;;;;;;;27.13;24.83;;;;;;;;;;5073414;28;20017;-62
2022/02/16 11:37:07;;;;;;;27.17;24.83;;;;;;;;;;5074128;28;20386;-63
2022/02/16 11:39:43;;;;;;;27.17;24.88;;;;;;;;;;5087552;28;20024;-61
2022/02/16 11:42:16;;;;;;;27.85;25.55;;;;;;;;;;5076214;28;20096;-65
2022/02/16 11:44:51;;;;;;;27.33;25.02;;;;;;;;;;5093470;28;20133;-59
2022/02/16 11:47:36;;;;;;;26.70;24.45;;;;;;;;;;5076152;28;20407;-61
2022/02/16 11:50:08;;;;;;;26.27;24.08;;;;;;;;;;5076929;28;20069;-62
2022/02/16 11:52:42;;;;;;;26.02;23.83;;;;;;;;;;5076360;28;20031;-63
2022/02/16 11:55:21;;;;;;;27.10;24.80;;;;;;;;;;5074728;28;20051;-62
2022/02/16 11:57:48;;;;;;;27.33;24.92;;;;;;;;;;5076434;28;20020;-63
2022/02/16 12:00:20;;;;;;;27.08;24.70;;;;;;;;;;5094905;28;20025;-61
2022/02/16 12:02:59;;;;;;;26.80;24.50;;;;;;;;;;5094769;28;20024;-61
2022/02/16 12:05:45;;;;;;;26.42;24.13;;;;;;;;;;5075372;28;20496;-61
2022/02/16 12:08:27;;;;;;;25.50;23.30;;;;;;;;;;5076008;28;20036;-60
2022/02/16 12:11:04;;;;;;;23.77;21.67;;;;;;;;;;5093982;28;20031;-61
2022/02/16 12:13:35;;;;;;;22.00;19.83;;;;;;;;;;5093840;28;20020;-61
2022/02/16 12:16:03;;;;;;;22.30;20.23;;;;;;;;;;5092898;28;20350;-61
2022/02/16 12:18:29;;;;;;;22.27;20.17;;;;;;;;;;5093933;28;20051;-61
2022/02/16 12:20:56;;;;;;;22.02;19.92;;;;;;;;;;5093915;28;20519;-61
2022/02/16 12:23:22;;;;;;;20.92;18.92;;;;;;;;;;5075247;28;20031;-60
2022/02/16 12:26:05;;;;;;;20.05;18.05;;;;;;;;;;5093055;28;20032;-63
2022/02/16 12:28:44;;;;;;;21.13;19.02;;;;;;;;;;5093299;28;20024;-63
2022/02/16 12:31:11;;;;;;;20.45;18.45;;;;;;;;;;5106267;22;20525;-57
2022/02/16 12:33:37;;;;;;;20.27;18.33;;;;;;;;;;5092323;28;20210;-53
2022/02/16 12:36:06;;;;;;;20.95;18.92;;;;;;;;;;5092066;28;20095;-57
2022/02/16 12:38:33;;;;;;;20.58;18.60;;;;;;;;;;5092458;28;20103;-57
2022/02/16 12:41:07;;;;;;;20.38;18.38;;;;;;;;;;5076918;28;20025;-58
2022/02/16 12:43:33;;;;;;;20.58;18.55;;;;;;;;;;5072063;28;20034;-54
2022/02/16 12:45:59;;;;;;;20.40;18.40;;;;;;;;;;4718126;28;9999759;-62
2022/02/16 12:48:25;;;;;;;20.40;18.30;;;;;;;;;;5056231;28;20071;-58
2022/02/16 12:50:57;;;;;;;20.65;18.65;;;;;;;;;;5061138;28;20669;-56
2022/02/16 12:53:35;;;;;;;20.23;18.13;;;;;;;;;;5048263;28;20504;-58
2022/02/16 12:56:08;;;;;;;20.75;18.75;;;;;;;;;;5060725;28;20025;-60
2022/02/16 12:58:34;;;;;;;23.65;21.55;;;;;;;;;;5068139;28;20495;-56
2022/02/16 13:01:00;;;;;;;23.05;20.95;;;;;;;;;;5050047;28;20064;-58
2022/02/16 13:03:27;;;;;;;24.02;21.92;;;;;;;;;;5050925;28;20059;-55
2022/02/16 13:05:53;;;;;;;25.65;23.45;;;;;;;;;;5067347;28;20369;-59
2022/02/16 13:08:22;;;;;;;26.30;23.95;;;;;;;;;;5049407;28;20033;-60
2022/02/16 13:10:48;;;;;;;26.95;24.83;;;;;;;;;;5067773;28;20083;-57
2022/02/16 13:13:14;;;;;;;28.27;26.08;;;;;;;;;;5068052;28;20028;-62
2022/02/16 13:15:43;;;;;;;28.33;25.92;;;;;;;;;;5067495;28;20499;-60
2022/02/16 13:18:09;;;;;;;28.42;26.02;;;;;;;;;;5068234;28;20036;-67
2022/02/16 13:20:36;;;;;;;29.83;27.42;;;;;;;;;;5062446;28;20036;-66
2022/02/16 13:23:02;;;;;;;29.23;26.73;;;;;;;;;;5030870;28;20120;-62
2022/02/16 13:25:34;;;;;;;28.67;26.27;;;;;;;;;;5064652;28;20062;-64
2022/02/16 13:28:05;;;;;;;28.08;25.77;;;;;;;;;;5068237;28;20020;-63
2022/02/16 13:30:32;;;;;;;28.80;26.30;;;;;;;;;;5049333;28;20147;-64
2022/02/16 13:33:00;;;;;;;28.35;25.95;;;;;;;;;;5067534;28;20108;-66
2022/02/16 13:35:27;;;;;;;27.73;25.40;;;;;;;;;;5068853;28;20478;-63
2022/02/16 13:37:56;;;;;;;29.42;26.98;;;;;;;;;;5068852;28;20028;-61
2022/02/16 13:40:22;;;;;;;28.83;26.50;;;;;;;;;;5048783;28;20024;-62
2022/02/16 13:42:55;;;;;;;27.38;25.15;;;;;;;;;;5060803;28;20032;-62
2022/02/16 13:45:31;;;;;;;28.23;25.92;;;;;;;;;;5067600;28;20025;-61
2022/02/16 13:47:57;;;;;;;29.23;26.73;;;;;;;;;;5068558;28;20461;-56
2022/02/16 13:50:28;;;;;;;28.08;25.77;;;;;;;;;;5053584;28;20051;-62
2022/02/16 13:52:54;;;;;;;28.48;26.08;;;;;;;;;;5068134;28;20074;-58
2022/02/16 13:55:20;;;;;;;27.00;24.70;;;;;;;;;;5069639;28;20078;-58
2022/02/16 13:57:46;;;;;;;26.23;23.83;;;;;;;;;;5070701;28;20074;-59
2022/02/16 14:00:20;;;;;;;25.63;23.42;;;;;;;;;;5070518;28;20024;-65
2022/02/16 14:03:05;;;;;;;24.77;22.48;;;;;;;;;;5068663;28;20074;-58
2022/02/16 14:05:31;;;;;;;25.95;23.58;;;;;;;;;;5068941;28;20036;-62
2022/02/16 14:07:57;;;;;;;24.80;22.42;;;;;;;;;;5070389;28;20424;-59
2022/02/16 14:10:23;;;;;;;24.70;22.40;;;;;;;;;;5071473;28;20488;-65
2022/02/16 14:12:49;;;;;;;24.38;21.98;;;;;;;;;;5071225;28;20150;-65
2022/02/16 14:15:16;;;;;;;23.35;21.05;;;;;;;;;;5052007;28;20480;-60
2022/02/16 14:17:43;;;;;;;24.08;21.67;;;;;;;;;;5070310;28;20116;-64